sensor_id;sensor_type;location;lat;lon;timestamp;P1;durP1;ratioP1;P2;durP2;ratioP2
76039;SDS011;64736;50.462;4.850;2023-05-10T00:00:01;12.98;;;7.07;;
76039;SDS011;64736;50.462;4.850;2023-05-10T00:02:27;14.02;;;6.57;;
76039;SDS011;64736;50.462;4.850;2023-05-10T00:04:53;16.17;;;7.15;;
76039;SDS011;64736;50.462;4.850;2023-05-10T00:07:18;14.38;;;6.20;;
76039;SDS011;64736;50.462;4.850;2023-05-10T00:09:44;11.45;;;5.93;;
76039;SDS011;64736;50.462;4.850;2023-05-10T00:12:10;14.43;;;6.40;;
76039;SDS011;64736;50.462;4.850;2023-05-10T00:14:35;10.23;;;5.47;;
76039;SDS011;64736;50.462;4.850;2023-05-10T00:17:01;10.95;;;4.90;;
76039;SDS011;64736;50.462;4.850;2023-05-10T00:19:27;11.98;;;5.53;;
76039;SDS011;64736;50.462;4.850;2023-05-10T00:21:52;10.90;;;5.60;;
76039;SDS011;64736;50.462;4.850;2023-05-10T00:24:18;12.18;;;5.18;;
76039;SDS011;64736;50.462;4.850;2023-05-10T00:26:44;12.07;;;5.10;;
76039;SDS011;64736;50.462;4.850;2023-05-10T00:29:09;11.50;;;5.20;;
76039;SDS011;64736;50.462;4.850;2023-05-10T00:31:35;9.80;;;5.63;;
76039;SDS011;64736;50.462;4.850;2023-05-10T00:34:01;9.88;;;5.50;;
76039;SDS011;64736;50.462;4.850;2023-05-10T00:36:26;10.45;;;5.40;;
76039;SDS011;64736;50.462;4.850;2023-05-10T00:38:52;9.68;;;5.18;;
76039;SDS011;64736;50.462;4.850;2023-05-10T00:41:18;11.10;;;5.45;;
76039;SDS011;64736;50.462;4.850;2023-05-10T00:43:44;14.35;;;6.57;;
76039;SDS011;64736;50.462;4.850;2023-05-10T00:46:10;10.73;;;6.72;;
76039;SDS011;64736;50.462;4.850;2023-05-10T00:48:36;13.68;;;5.07;;
76039;SDS011;64736;50.462;4.850;2023-05-10T00:51:02;12.77;;;5.10;;
76039;SDS011;64736;50.462;4.850;2023-05-10T00:53:27;10.40;;;5.65;;
76039;SDS011;64736;50.462;4.850;2023-05-10T00:55:56;13.13;;;5.35;;
76039;SDS011;64736;50.462;4.850;2023-05-10T00:58:22;10.38;;;5.40;;
76039;SDS011;64736;50.462;4.850;2023-05-10T01:00:49;12.10;;;5.43;;
76039;SDS011;64736;50.462;4.850;2023-05-10T01:03:16;12.32;;;5.72;;
76039;SDS011;64736;50.462;4.850;2023-05-10T01:05:42;14.07;;;5.80;;
76039;SDS011;64736;50.462;4.850;2023-05-10T01:08:08;11.23;;;5.40;;
76039;SDS011;64736;50.462;4.850;2023-05-10T01:10:34;11.40;;;6.10;;
76039;SDS011;64736;50.462;4.850;2023-05-10T01:13:00;11.65;;;5.20;;
76039;SDS011;64736;50.462;4.850;2023-05-10T01:15:25;10.52;;;5.30;;
76039;SDS011;64736;50.462;4.850;2023-05-10T01:17:52;10.65;;;6.07;;
76039;SDS011;64736;50.462;4.850;2023-05-10T01:20:18;12.23;;;5.40;;
76039;SDS011;64736;50.462;4.850;2023-05-10T01:25:43;10.32;;;5.13;;
76039;SDS011;64736;50.462;4.850;2023-05-10T01:28:39;9.23;;;5.40;;
76039;SDS011;64736;50.462;4.850;2023-05-10T01:31:21;11.23;;;5.55;;
76039;SDS011;64736;50.462;4.850;2023-05-10T01:34:07;13.48;;;5.13;;
76039;SDS011;64736;50.462;4.850;2023-05-10T01:39:19;12.20;;;5.97;;
76039;SDS011;64736;50.462;4.850;2023-05-10T01:41:50;11.55;;;5.20;;
76039;SDS011;64736;50.462;4.850;2023-05-10T01:47:09;8.15;;;5.25;;
76039;SDS011;64736;50.462;4.850;2023-05-10T01:49:54;9.35;;;4.93;;
76039;SDS011;64736;50.462;4.850;2023-05-10T01:52:30;13.18;;;5.57;;
76039;SDS011;64736;50.462;4.850;2023-05-10T01:55:09;10.88;;;4.97;;
76039;SDS011;64736;50.462;4.850;2023-05-10T01:57:42;11.43;;;5.40;;
76039;SDS011;64736;50.462;4.850;2023-05-10T02:00:10;11.60;;;5.03;;
76039;SDS011;64736;50.462;4.850;2023-05-10T02:02:37;10.18;;;4.85;;
76039;SDS011;64736;50.462;4.850;2023-05-10T02:05:07;9.80;;;4.93;;
76039;SDS011;64736;50.462;4.850;2023-05-10T02:07:37;10.98;;;5.20;;
76039;SDS011;64736;50.462;4.850;2023-05-10T02:10:04;10.43;;;5.10;;
76039;SDS011;64736;50.462;4.850;2023-05-10T02:12:38;11.43;;;5.10;;
76039;SDS011;64736;50.462;4.850;2023-05-10T02:15:09;12.05;;;5.13;;
76039;SDS011;64736;50.462;4.850;2023-05-10T02:17:37;11.65;;;5.00;;
76039;SDS011;64736;50.462;4.850;2023-05-10T02:20:07;10.38;;;5.15;;
76039;SDS011;64736;50.462;4.850;2023-05-10T02:22:35;14.20;;;5.97;;
76039;SDS011;64736;50.462;4.850;2023-05-10T02:25:02;11.88;;;5.80;;
76039;SDS011;64736;50.462;4.850;2023-05-10T02:27:29;12.13;;;6.28;;
76039;SDS011;64736;50.462;4.850;2023-05-10T02:29:55;10.60;;;5.78;;
76039;SDS011;64736;50.462;4.850;2023-05-10T02:32:24;11.73;;;5.30;;
76039;SDS011;64736;50.462;4.850;2023-05-10T02:34:52;10.80;;;6.32;;
76039;SDS011;64736;50.462;4.850;2023-05-10T02:37:18;13.55;;;6.55;;
76039;SDS011;64736;50.462;4.850;2023-05-10T02:39:49;11.60;;;6.38;;
76039;SDS011;64736;50.462;4.850;2023-05-10T02:42:22;16.58;;;6.60;;
76039;SDS011;64736;50.462;4.850;2023-05-10T02:44:52;15.82;;;6.07;;
76039;SDS011;64736;50.462;4.850;2023-05-10T02:47:21;12.55;;;6.63;;
76039;SDS011;64736;50.462;4.850;2023-05-10T02:49:48;16.80;;;7.43;;
76039;SDS011;64736;50.462;4.850;2023-05-10T02:52:15;12.98;;;6.93;;
76039;SDS011;64736;50.462;4.850;2023-05-10T02:54:45;15.48;;;6.53;;
76039;SDS011;64736;50.462;4.850;2023-05-10T02:57:15;14.43;;;6.85;;
76039;SDS011;64736;50.462;4.850;2023-05-10T02:59:45;16.42;;;6.95;;
76039;SDS011;64736;50.462;4.850;2023-05-10T03:02:14;13.13;;;7.25;;
76039;SDS011;64736;50.462;4.850;2023-05-10T03:04:40;15.88;;;6.85;;
76039;SDS011;64736;50.462;4.850;2023-05-10T03:07:05;19.23;;;7.72;;
76039;SDS011;64736;50.462;4.850;2023-05-10T03:09:32;16.42;;;7.53;;
76039;SDS011;64736;50.462;4.850;2023-05-10T03:16:57;15.83;;;7.13;;
76039;SDS011;64736;50.462;4.850;2023-05-10T03:19:32;17.05;;;7.68;;
76039;SDS011;64736;50.462;4.850;2023-05-10T03:22:08;14.55;;;8.25;;
76039;SDS011;64736;50.462;4.850;2023-05-10T03:24:35;13.45;;;6.90;;
76039;SDS011;64736;50.462;4.850;2023-05-10T03:27:05;17.67;;;8.70;;
76039;SDS011;64736;50.462;4.850;2023-05-10T03:29:32;14.65;;;7.78;;
76039;SDS011;64736;50.462;4.850;2023-05-10T03:31:58;13.75;;;6.93;;
76039;SDS011;64736;50.462;4.850;2023-05-10T03:34:25;16.02;;;7.38;;
76039;SDS011;64736;50.462;4.850;2023-05-10T03:36:51;17.65;;;8.18;;
76039;SDS011;64736;50.462;4.850;2023-05-10T03:39:17;15.65;;;7.78;;
76039;SDS011;64736;50.462;4.850;2023-05-10T03:41:43;16.35;;;6.55;;
76039;SDS011;64736;50.462;4.850;2023-05-10T03:44:08;16.88;;;7.82;;
76039;SDS011;64736;50.462;4.850;2023-05-10T03:46:34;15.23;;;7.15;;
76039;SDS011;64736;50.462;4.850;2023-05-10T03:49:00;15.32;;;7.43;;
76039;SDS011;64736;50.462;4.850;2023-05-10T03:51:25;15.10;;;6.95;;
76039;SDS011;64736;50.462;4.850;2023-05-10T03:53:54;15.32;;;7.65;;
76039;SDS011;64736;50.462;4.850;2023-05-10T03:56:20;15.32;;;7.90;;
76039;SDS011;64736;50.462;4.850;2023-05-10T03:58:46;17.02;;;7.32;;
76039;SDS011;64736;50.462;4.850;2023-05-10T04:01:12;15.70;;;7.72;;
76039;SDS011;64736;50.462;4.850;2023-05-10T04:03:38;17.20;;;8.57;;
76039;SDS011;64736;50.462;4.850;2023-05-10T04:06:03;18.50;;;9.32;;
76039;SDS011;64736;50.462;4.850;2023-05-10T04:08:30;17.38;;;8.57;;
76039;SDS011;64736;50.462;4.850;2023-05-10T04:11:09;20.50;;;8.82;;
76039;SDS011;64736;50.462;4.850;2023-05-10T04:13:36;17.70;;;9.05;;
76039;SDS011;64736;50.462;4.850;2023-05-10T04:16:03;19.25;;;9.30;;
76039;SDS011;64736;50.462;4.850;2023-05-10T04:18:29;18.40;;;10.38;;
76039;SDS011;64736;50.462;4.850;2023-05-10T04:20:56;16.33;;;8.55;;
76039;SDS011;64736;50.462;4.850;2023-05-10T04:23:22;17.58;;;8.88;;
76039;SDS011;64736;50.462;4.850;2023-05-10T04:25:48;16.75;;;8.88;;
76039;SDS011;64736;50.462;4.850;2023-05-10T04:28:14;19.08;;;10.10;;
76039;SDS011;64736;50.462;4.850;2023-05-10T04:30:39;18.35;;;8.82;;
76039;SDS011;64736;50.462;4.850;2023-05-10T04:33:05;13.95;;;7.65;;
76039;SDS011;64736;50.462;4.850;2023-05-10T04:35:31;15.50;;;6.97;;
76039;SDS011;64736;50.462;4.850;2023-05-10T04:37:57;15.90;;;7.22;;
76039;SDS011;64736;50.462;4.850;2023-05-10T04:40:22;15.15;;;7.55;;
76039;SDS011;64736;50.462;4.850;2023-05-10T04:42:49;11.68;;;5.57;;
76039;SDS011;64736;50.462;4.850;2023-05-10T04:45:14;11.38;;;4.88;;
76039;SDS011;64736;50.462;4.850;2023-05-10T04:47:40;8.35;;;4.47;;
76039;SDS011;64736;50.462;4.850;2023-05-10T04:50:06;8.98;;;5.00;;
76039;SDS011;64736;50.462;4.850;2023-05-10T04:52:32;8.70;;;3.78;;
76039;SDS011;64736;50.462;4.850;2023-05-10T04:54:58;10.32;;;3.97;;
76039;SDS011;64736;50.462;4.850;2023-05-10T04:57:24;10.00;;;4.15;;
76039;SDS011;64736;50.462;4.850;2023-05-10T04:59:50;9.00;;;3.65;;
76039;SDS011;64736;50.462;4.850;2023-05-10T05:02:16;7.32;;;3.45;;
76039;SDS011;64736;50.462;4.850;2023-05-10T05:04:41;11.23;;;3.55;;
76039;SDS011;64736;50.462;4.850;2023-05-10T05:07:07;6.18;;;2.78;;
76039;SDS011;64736;50.462;4.850;2023-05-10T05:09:33;7.80;;;2.70;;
76039;SDS011;64736;50.462;4.850;2023-05-10T05:11:59;5.47;;;2.40;;
76039;SDS011;64736;50.462;4.850;2023-05-10T05:14:25;6.15;;;2.47;;
76039;SDS011;64736;50.462;4.850;2023-05-10T05:16:51;8.10;;;2.80;;
76039;SDS011;64736;50.462;4.850;2023-05-10T05:19:17;5.72;;;2.42;;
76039;SDS011;64736;50.462;4.850;2023-05-10T05:21:43;6.03;;;2.40;;
76039;SDS011;64736;50.462;4.850;2023-05-10T05:24:09;9.48;;;2.90;;
76039;SDS011;64736;50.462;4.850;2023-05-10T05:26:36;8.35;;;2.90;;
76039;SDS011;64736;50.462;4.850;2023-05-10T05:29:02;7.43;;;3.42;;
76039;SDS011;64736;50.462;4.850;2023-05-10T05:31:28;7.15;;;2.90;;
76039;SDS011;64736;50.462;4.850;2023-05-10T05:33:54;7.72;;;3.15;;
76039;SDS011;64736;50.462;4.850;2023-05-10T05:36:20;9.25;;;3.45;;
76039;SDS011;64736;50.462;4.850;2023-05-10T05:38:46;6.65;;;3.72;;
76039;SDS011;64736;50.462;4.850;2023-05-10T05:41:12;8.65;;;3.70;;
76039;SDS011;64736;50.462;4.850;2023-05-10T05:43:37;8.20;;;3.97;;
76039;SDS011;64736;50.462;4.850;2023-05-10T05:46:03;7.40;;;3.03;;
76039;SDS011;64736;50.462;4.850;2023-05-10T05:48:29;9.80;;;3.83;;
76039;SDS011;64736;50.462;4.850;2023-05-10T05:50:56;5.85;;;2.92;;
76039;SDS011;64736;50.462;4.850;2023-05-10T05:53:22;7.95;;;3.15;;
76039;SDS011;64736;50.462;4.850;2023-05-10T05:55:55;7.13;;;3.30;;
76039;SDS011;64736;50.462;4.850;2023-05-10T05:58:22;8.38;;;3.67;;
76039;SDS011;64736;50.462;4.850;2023-05-10T06:00:49;7.40;;;2.97;;
76039;SDS011;64736;50.462;4.850;2023-05-10T06:03:15;6.90;;;3.38;;
76039;SDS011;64736;50.462;4.850;2023-05-10T06:05:41;10.10;;;4.03;;
76039;SDS011;64736;50.462;4.850;2023-05-10T06:08:07;8.15;;;3.65;;
76039;SDS011;64736;50.462;4.850;2023-05-10T06:10:32;7.22;;;2.97;;
76039;SDS011;64736;50.462;4.850;2023-05-10T06:12:58;8.10;;;3.10;;
76039;SDS011;64736;50.462;4.850;2023-05-10T06:15:24;5.82;;;2.85;;
76039;SDS011;64736;50.462;4.850;2023-05-10T06:17:51;6.63;;;3.22;;
76039;SDS011;64736;50.462;4.850;2023-05-10T06:20:17;7.50;;;3.15;;
76039;SDS011;64736;50.462;4.850;2023-05-10T06:22:42;7.57;;;2.97;;
76039;SDS011;64736;50.462;4.850;2023-05-10T06:25:08;6.45;;;2.80;;
76039;SDS011;64736;50.462;4.850;2023-05-10T06:27:34;8.18;;;2.97;;
76039;SDS011;64736;50.462;4.850;2023-05-10T06:30:00;8.23;;;2.90;;
76039;SDS011;64736;50.462;4.850;2023-05-10T06:32:26;5.45;;;2.55;;
76039;SDS011;64736;50.462;4.850;2023-05-10T06:34:51;9.35;;;5.18;;
76039;SDS011;64736;50.462;4.850;2023-05-10T06:37:17;5.57;;;2.47;;
76039;SDS011;64736;50.462;4.850;2023-05-10T06:39:43;6.28;;;2.97;;
76039;SDS011;64736;50.462;4.850;2023-05-10T06:42:08;6.75;;;3.05;;
76039;SDS011;64736;50.462;4.850;2023-05-10T06:44:34;8.18;;;3.13;;
76039;SDS011;64736;50.462;4.850;2023-05-10T06:46:59;7.32;;;2.90;;
76039;SDS011;64736;50.462;4.850;2023-05-10T06:49:26;5.07;;;2.42;;
76039;SDS011;64736;50.462;4.850;2023-05-10T06:51:52;9.20;;;2.65;;
76039;SDS011;64736;50.462;4.850;2023-05-10T06:54:18;6.47;;;2.65;;
76039;SDS011;64736;50.462;4.850;2023-05-10T06:56:44;4.68;;;2.53;;
76039;SDS011;64736;50.462;4.850;2023-05-10T06:59:10;7.22;;;2.40;;
76039;SDS011;64736;50.462;4.850;2023-05-10T07:01:35;4.63;;;1.85;;
76039;SDS011;64736;50.462;4.850;2023-05-10T07:04:01;5.57;;;2.03;;
76039;SDS011;64736;50.462;4.850;2023-05-10T07:06:27;6.07;;;2.20;;
76039;SDS011;64736;50.462;4.850;2023-05-10T07:08:53;5.72;;;2.30;;
76039;SDS011;64736;50.462;4.850;2023-05-10T07:11:19;4.75;;;2.20;;
76039;SDS011;64736;50.462;4.850;2023-05-10T07:13:44;6.43;;;2.30;;
76039;SDS011;64736;50.462;4.850;2023-05-10T07:16:11;7.32;;;2.53;;
76039;SDS011;64736;50.462;4.850;2023-05-10T07:18:37;7.82;;;2.75;;
76039;SDS011;64736;50.462;4.850;2023-05-10T07:21:02;6.15;;;2.50;;
76039;SDS011;64736;50.462;4.850;2023-05-10T07:23:28;7.00;;;2.75;;
76039;SDS011;64736;50.462;4.850;2023-05-10T07:25:54;7.80;;;2.30;;
76039;SDS011;64736;50.462;4.850;2023-05-10T07:28:22;5.10;;;2.38;;
76039;SDS011;64736;50.462;4.850;2023-05-10T07:30:49;5.05;;;2.45;;
76039;SDS011;64736;50.462;4.850;2023-05-10T07:33:15;6.22;;;2.78;;
76039;SDS011;64736;50.462;4.850;2023-05-10T07:35:40;6.00;;;2.63;;
76039;SDS011;64736;50.462;4.850;2023-05-10T07:38:06;8.25;;;2.85;;
76039;SDS011;64736;50.462;4.850;2023-05-10T07:40:32;6.38;;;2.75;;
76039;SDS011;64736;50.462;4.850;2023-05-10T07:42:58;5.50;;;2.63;;
76039;SDS011;64736;50.462;4.850;2023-05-10T07:45:25;6.85;;;3.67;;
76039;SDS011;64736;50.462;4.850;2023-05-10T07:47:51;4.38;;;2.40;;
76039;SDS011;64736;50.462;4.850;2023-05-10T07:50:16;5.43;;;2.30;;
76039;SDS011;64736;50.462;4.850;2023-05-10T07:52:42;5.10;;;2.50;;
76039;SDS011;64736;50.462;4.850;2023-05-10T07:55:09;5.07;;;2.50;;
76039;SDS011;64736;50.462;4.850;2023-05-10T07:57:35;6.25;;;2.20;;
76039;SDS011;64736;50.462;4.850;2023-05-10T08:00:01;5.38;;;2.55;;
76039;SDS011;64736;50.462;4.850;2023-05-10T08:02:27;4.97;;;2.22;;
76039;SDS011;64736;50.462;4.850;2023-05-10T08:04:53;4.78;;;2.42;;
76039;SDS011;64736;50.462;4.850;2023-05-10T08:07:19;6.53;;;2.92;;
76039;SDS011;64736;50.462;4.850;2023-05-10T08:09:44;6.65;;;3.13;;
76039;SDS011;64736;50.462;4.850;2023-05-10T08:12:10;5.55;;;2.75;;
76039;SDS011;64736;50.462;4.850;2023-05-10T08:14:35;4.78;;;2.55;;
76039;SDS011;64736;50.462;4.850;2023-05-10T08:17:04;4.97;;;2.57;;
76039;SDS011;64736;50.462;4.850;2023-05-10T08:19:30;5.80;;;2.70;;
76039;SDS011;64736;50.462;4.850;2023-05-10T08:21:56;5.03;;;2.25;;
76039;SDS011;64736;50.462;4.850;2023-05-10T08:24:22;5.43;;;2.45;;
76039;SDS011;64736;50.462;4.850;2023-05-10T08:26:49;5.32;;;2.45;;
76039;SDS011;64736;50.462;4.850;2023-05-10T08:29:15;4.97;;;2.30;;
76039;SDS011;64736;50.462;4.850;2023-05-10T08:31:40;5.30;;;2.50;;
76039;SDS011;64736;50.462;4.850;2023-05-10T08:34:06;4.88;;;2.60;;
76039;SDS011;64736;50.462;4.850;2023-05-10T08:36:32;6.35;;;2.08;;
76039;SDS011;64736;50.462;4.850;2023-05-10T08:38:58;4.40;;;2.00;;
76039;SDS011;64736;50.462;4.850;2023-05-10T08:41:24;4.22;;;2.10;;
76039;SDS011;64736;50.462;4.850;2023-05-10T08:43:50;5.50;;;1.80;;
76039;SDS011;64736;50.462;4.850;2023-05-10T08:46:21;4.50;;;2.00;;
76039;SDS011;64736;50.462;4.850;2023-05-10T08:48:48;5.43;;;2.25;;
76039;SDS011;64736;50.462;4.850;2023-05-10T08:51:18;5.30;;;2.20;;
76039;SDS011;64736;50.462;4.850;2023-05-10T08:53:47;5.00;;;2.60;;
76039;SDS011;64736;50.462;4.850;2023-05-10T08:56:12;4.63;;;2.20;;
76039;SDS011;64736;50.462;4.850;2023-05-10T08:58:38;4.25;;;1.95;;
76039;SDS011;64736;50.462;4.850;2023-05-10T09:01:07;3.85;;;2.05;;
76039;SDS011;64736;50.462;4.850;2023-05-10T09:03:33;5.45;;;1.90;;
76039;SDS011;64736;50.462;4.850;2023-05-10T09:06:00;4.13;;;1.85;;
76039;SDS011;64736;50.462;4.850;2023-05-10T09:08:26;4.25;;;1.52;;
76039;SDS011;64736;50.462;4.850;2023-05-10T09:10:52;3.90;;;1.80;;
76039;SDS011;64736;50.462;4.850;2023-05-10T09:13:20;4.18;;;1.85;;
76039;SDS011;64736;50.462;4.850;2023-05-10T09:15:46;3.88;;;1.60;;
76039;SDS011;64736;50.462;4.850;2023-05-10T09:18:12;4.32;;;1.50;;
76039;SDS011;64736;50.462;4.850;2023-05-10T09:20:38;3.03;;;1.30;;
76039;SDS011;64736;50.462;4.850;2023-05-10T09:23:03;3.25;;;1.48;;
76039;SDS011;64736;50.462;4.850;2023-05-10T09:25:30;3.55;;;1.50;;
76039;SDS011;64736;50.462;4.850;2023-05-10T09:27:58;3.75;;;1.40;;
76039;SDS011;64736;50.462;4.850;2023-05-10T09:32:50;3.80;;;1.80;;
76039;SDS011;64736;50.462;4.850;2023-05-10T09:35:20;4.90;;;1.90;;
76039;SDS011;64736;50.462;4.850;2023-05-10T09:37:52;3.72;;;1.90;;
76039;SDS011;64736;50.462;4.850;2023-05-10T09:40:20;5.13;;;2.03;;
76039;SDS011;64736;50.462;4.850;2023-05-10T09:45:48;4.65;;;1.90;;
76039;SDS011;64736;50.462;4.850;2023-05-10T09:48:16;4.82;;;1.70;;
76039;SDS011;64736;50.462;4.850;2023-05-10T09:50:42;4.43;;;1.98;;
76039;SDS011;64736;50.462;4.850;2023-05-10T09:53:07;3.13;;;1.70;;
76039;SDS011;64736;50.462;4.850;2023-05-10T09:58:11;3.95;;;1.50;;
76039;SDS011;64736;50.462;4.850;2023-05-10T10:00:38;4.18;;;1.60;;
76039;SDS011;64736;50.462;4.850;2023-05-10T10:03:05;3.60;;;1.67;;
76039;SDS011;64736;50.462;4.850;2023-05-10T10:05:32;4.30;;;1.40;;
76039;SDS011;64736;50.462;4.850;2023-05-10T10:08:00;3.63;;;1.65;;
76039;SDS011;64736;50.462;4.850;2023-05-10T10:10:30;3.20;;;1.48;;
76039;SDS011;64736;50.462;4.850;2023-05-10T10:12:57;4.05;;;1.50;;
76039;SDS011;64736;50.462;4.850;2023-05-10T10:15:23;3.63;;;1.58;;
76039;SDS011;64736;50.462;4.850;2023-05-10T10:17:49;4.20;;;1.52;;
76039;SDS011;64736;50.462;4.850;2023-05-10T10:20:16;4.10;;;1.83;;
76039;SDS011;64736;50.462;4.850;2023-05-10T10:22:44;4.55;;;1.95;;
76039;SDS011;64736;50.462;4.850;2023-05-10T10:25:13;3.80;;;1.70;;
76039;SDS011;64736;50.462;4.850;2023-05-10T10:27:47;4.55;;;2.30;;
76039;SDS011;64736;50.462;4.850;2023-05-10T10:35:52;4.55;;;2.13;;
76039;SDS011;64736;50.462;4.850;2023-05-10T10:38:18;4.30;;;1.92;;
76039;SDS011;64736;50.462;4.850;2023-05-10T10:40:44;4.85;;;2.83;;
76039;SDS011;64736;50.462;4.850;2023-05-10T10:43:27;4.40;;;2.05;;
76039;SDS011;64736;50.462;4.850;2023-05-10T10:46:10;4.10;;;2.08;;
76039;SDS011;64736;50.462;4.850;2023-05-10T10:48:50;4.13;;;2.13;;
76039;SDS011;64736;50.462;4.850;2023-05-10T10:51:37;4.47;;;1.65;;
76039;SDS011;64736;50.462;4.850;2023-05-10T10:54:10;5.03;;;1.52;;
76039;SDS011;64736;50.462;4.850;2023-05-10T10:56:36;3.80;;;1.73;;
76039;SDS011;64736;50.462;4.850;2023-05-10T10:59:02;3.63;;;1.63;;
76039;SDS011;64736;50.462;4.850;2023-05-10T11:01:34;4.75;;;1.98;;
76039;SDS011;64736;50.462;4.850;2023-05-10T11:06:30;3.90;;;1.60;;
76039;SDS011;64736;50.462;4.850;2023-05-10T11:08:56;3.38;;;1.52;;
76039;SDS011;64736;50.462;4.850;2023-05-10T11:11:22;4.60;;;1.90;;
76039;SDS011;64736;50.462;4.850;2023-05-10T11:13:48;3.85;;;1.70;;
76039;SDS011;64736;50.462;4.850;2023-05-10T11:16:15;4.93;;;1.60;;
76039;SDS011;64736;50.462;4.850;2023-05-10T11:21:44;4.13;;;1.80;;
76039;SDS011;64736;50.462;4.850;2023-05-10T11:24:17;3.60;;;1.70;;
76039;SDS011;64736;50.462;4.850;2023-05-10T11:26:45;5.30;;;1.98;;
76039;SDS011;64736;50.462;4.850;2023-05-10T11:29:12;3.70;;;1.77;;
76039;SDS011;64736;50.462;4.850;2023-05-10T11:31:44;5.30;;;2.08;;
76039;SDS011;64736;50.462;4.850;2023-05-10T11:34:10;4.30;;;1.88;;
76039;SDS011;64736;50.462;4.850;2023-05-10T11:36:36;4.72;;;1.73;;
76039;SDS011;64736;50.462;4.850;2023-05-10T11:39:03;3.88;;;1.73;;
76039;SDS011;64736;50.462;4.850;2023-05-10T11:41:34;4.50;;;2.10;;
76039;SDS011;64736;50.462;4.850;2023-05-10T11:44:01;5.97;;;1.83;;
76039;SDS011;64736;50.462;4.850;2023-05-10T11:46:28;3.72;;;1.70;;
76039;SDS011;64736;50.462;4.850;2023-05-10T11:48:57;5.68;;;1.70;;
76039;SDS011;64736;50.462;4.850;2023-05-10T11:51:27;3.60;;;1.65;;
76039;SDS011;64736;50.462;4.850;2023-05-10T11:53:54;4.85;;;2.05;;
76039;SDS011;64736;50.462;4.850;2023-05-10T11:56:24;6.30;;;2.30;;
76039;SDS011;64736;50.462;4.850;2023-05-10T11:58:55;5.75;;;2.40;;
76039;SDS011;64736;50.462;4.850;2023-05-10T12:01:22;5.97;;;2.45;;
76039;SDS011;64736;50.462;4.850;2023-05-10T12:03:52;5.63;;;2.05;;
76039;SDS011;64736;50.462;4.850;2023-05-10T12:06:19;4.93;;;2.35;;
76039;SDS011;64736;50.462;4.850;2023-05-10T12:08:46;6.18;;;2.08;;
76039;SDS011;64736;50.462;4.850;2023-05-10T12:11:12;5.40;;;2.10;;
76039;SDS011;64736;50.462;4.850;2023-05-10T12:13:43;5.65;;;2.70;;
76039;SDS011;64736;50.462;4.850;2023-05-10T12:18:50;4.88;;;2.17;;
76039;SDS011;64736;50.462;4.850;2023-05-10T12:21:18;5.57;;;2.88;;
76039;SDS011;64736;50.462;4.850;2023-05-10T12:23:45;6.25;;;2.88;;
76039;SDS011;64736;50.462;4.850;2023-05-10T12:26:12;4.65;;;2.33;;
76039;SDS011;64736;50.462;4.850;2023-05-10T12:28:38;5.95;;;2.22;;
76039;SDS011;64736;50.462;4.850;2023-05-10T12:31:05;5.40;;;2.05;;
76039;SDS011;64736;50.462;4.850;2023-05-10T12:33:37;5.50;;;2.15;;
76039;SDS011;64736;50.462;4.850;2023-05-10T12:36:11;6.22;;;2.88;;
76039;SDS011;64736;50.462;4.850;2023-05-10T12:38:39;4.25;;;2.00;;
76039;SDS011;64736;50.462;4.850;2023-05-10T12:41:09;4.03;;;1.70;;
76039;SDS011;64736;50.462;4.850;2023-05-10T12:43:38;4.20;;;1.90;;
76039;SDS011;64736;50.462;4.850;2023-05-10T12:46:08;5.53;;;2.45;;
76039;SDS011;64736;50.462;4.850;2023-05-10T12:48:38;4.68;;;1.83;;
76039;SDS011;64736;50.462;4.850;2023-05-10T12:51:05;5.35;;;1.92;;
76039;SDS011;64736;50.462;4.850;2023-05-10T12:53:34;4.18;;;1.92;;
76039;SDS011;64736;50.462;4.850;2023-05-10T12:56:01;4.60;;;1.80;;
76039;SDS011;64736;50.462;4.850;2023-05-10T12:58:26;5.13;;;1.92;;
76039;SDS011;64736;50.462;4.850;2023-05-10T13:00:52;4.47;;;2.00;;
76039;SDS011;64736;50.462;4.850;2023-05-10T13:03:18;4.15;;;1.63;;
76039;SDS011;64736;50.462;4.850;2023-05-10T13:05:44;3.95;;;1.30;;
76039;SDS011;64736;50.462;4.850;2023-05-10T13:08:10;4.05;;;1.60;;
76039;SDS011;64736;50.462;4.850;2023-05-10T13:10:35;4.13;;;1.73;;
76039;SDS011;64736;50.462;4.850;2023-05-10T13:13:01;4.50;;;1.45;;
76039;SDS011;64736;50.462;4.850;2023-05-10T13:15:28;4.03;;;1.73;;
76039;SDS011;64736;50.462;4.850;2023-05-10T13:17:53;4.43;;;2.05;;
76039;SDS011;64736;50.462;4.850;2023-05-10T13:20:20;5.10;;;2.13;;
76039;SDS011;64736;50.462;4.850;2023-05-10T13:22:45;4.70;;;1.90;;
76039;SDS011;64736;50.462;4.850;2023-05-10T13:25:11;4.13;;;1.63;;
76039;SDS011;64736;50.462;4.850;2023-05-10T13:27:38;3.70;;;1.42;;
76039;SDS011;64736;50.462;4.850;2023-05-10T13:30:04;3.58;;;1.85;;
76039;SDS011;64736;50.462;4.850;2023-05-10T13:32:30;3.97;;;1.42;;
76039;SDS011;64736;50.462;4.850;2023-05-10T13:34:56;5.05;;;1.73;;
76039;SDS011;64736;50.462;4.850;2023-05-10T13:37:22;2.80;;;1.30;;
76039;SDS011;64736;50.462;4.850;2023-05-10T13:39:47;4.13;;;1.48;;
76039;SDS011;64736;50.462;4.850;2023-05-10T13:42:13;4.22;;;1.15;;
76039;SDS011;64736;50.462;4.850;2023-05-10T13:44:39;3.58;;;1.20;;
76039;SDS011;64736;50.462;4.850;2023-05-10T13:47:05;4.70;;;1.55;;
76039;SDS011;64736;50.462;4.850;2023-05-10T13:49:31;3.00;;;1.30;;
76039;SDS011;64736;50.462;4.850;2023-05-10T13:51:57;3.63;;;1.30;;
76039;SDS011;64736;50.462;4.850;2023-05-10T13:54:23;3.22;;;1.27;;
76039;SDS011;64736;50.462;4.850;2023-05-10T13:56:49;3.83;;;1.50;;
76039;SDS011;64736;50.462;4.850;2023-05-10T13:59:14;3.30;;;1.20;;
76039;SDS011;64736;50.462;4.850;2023-05-10T14:01:40;3.03;;;1.15;;
76039;SDS011;64736;50.462;4.850;2023-05-10T14:04:06;3.45;;;1.20;;
76039;SDS011;64736;50.462;4.850;2023-05-10T14:06:35;2.47;;;1.02;;
76039;SDS011;64736;50.462;4.850;2023-05-10T14:09:01;3.00;;;1.20;;
76039;SDS011;64736;50.462;4.850;2023-05-10T14:11:27;4.28;;;1.10;;
76039;SDS011;64736;50.462;4.850;2023-05-10T14:13:52;3.20;;;1.20;;
76039;SDS011;64736;50.462;4.850;2023-05-10T14:16:18;3.65;;;1.30;;
76039;SDS011;64736;50.462;4.850;2023-05-10T14:18:45;3.55;;;1.10;;
76039;SDS011;64736;50.462;4.850;2023-05-10T14:21:11;2.90;;;1.23;;
76039;SDS011;64736;50.462;4.850;2023-05-10T14:23:37;3.35;;;1.13;;
76039;SDS011;64736;50.462;4.850;2023-05-10T14:26:02;3.38;;;1.08;;
76039;SDS011;64736;50.462;4.850;2023-05-10T14:28:28;2.55;;;1.02;;
76039;SDS011;64736;50.462;4.850;2023-05-10T14:30:54;2.97;;;1.00;;
76039;SDS011;64736;50.462;4.850;2023-05-10T14:33:19;2.88;;;1.00;;
76039;SDS011;64736;50.462;4.850;2023-05-10T14:35:46;3.53;;;1.13;;
76039;SDS011;64736;50.462;4.850;2023-05-10T14:38:12;2.45;;;0.90;;
76039;SDS011;64736;50.462;4.850;2023-05-10T14:40:39;2.17;;;0.90;;
76039;SDS011;64736;50.462;4.850;2023-05-10T14:43:04;2.78;;;1.00;;
76039;SDS011;64736;50.462;4.850;2023-05-10T14:45:30;2.90;;;0.98;;
76039;SDS011;64736;50.462;4.850;2023-05-10T14:47:56;2.47;;;1.00;;
76039;SDS011;64736;50.462;4.850;2023-05-10T14:50:23;3.38;;;1.17;;
76039;SDS011;64736;50.462;4.850;2023-05-10T14:52:49;2.08;;;0.85;;
76039;SDS011;64736;50.462;4.850;2023-05-10T14:55:15;2.03;;;0.80;;
76039;SDS011;64736;50.462;4.850;2023-05-10T14:57:41;1.63;;;0.98;;
76039;SDS011;64736;50.462;4.850;2023-05-10T15:00:07;4.10;;;1.35;;
76039;SDS011;64736;50.462;4.850;2023-05-10T15:02:33;2.90;;;1.20;;
76039;SDS011;64736;50.462;4.850;2023-05-10T15:04:59;3.15;;;1.27;;
76039;SDS011;64736;50.462;4.850;2023-05-10T15:07:24;3.28;;;1.10;;
76039;SDS011;64736;50.462;4.850;2023-05-10T15:09:50;3.10;;;1.10;;
76039;SDS011;64736;50.462;4.850;2023-05-10T15:12:19;3.65;;;1.10;;
76039;SDS011;64736;50.462;4.850;2023-05-10T15:14:45;3.80;;;1.33;;
76039;SDS011;64736;50.462;4.850;2023-05-10T15:17:11;2.92;;;1.17;;